Nearby Idaho METAR Reports

Sorted by Distance from Emmett Weather Station - Emmett, Idaho

 

KEUL - Caldwell, Idaho, USA
Distance from station: SSW 19mi, 30km
Updated: Mon, 15-Apr-2024 10:56am MDT
Light rain, Few clouds
Light rain, Few clouds
 Wind from W
Wind: W 16 mph , 26 km/h, Gust: 23 mph , 37 km/h
Temperature: 55°F , 13°C
Dew Point: 41°F , 5°C
Humidity: 59%
Barometer: 29.99 inHg , 1015.6 hPa
Summary: Light rain
Clouds: Few Clouds
Visibility: 10 miles , 16 km
Cloud details: Few Clouds 7500 ft
2024/04/15 16:56 KEUL 151656Z AUTO 28014G20KT 10SM -RA FEW075 13/05 A2999 RMK AO2 RAB1557 SLP153 P0000 T01330050
KMAN - Nampa, Idaho, USA
Distance from station: S 19mi, 31km
Updated: Mon, 15-Apr-2024 11:35am MDT
Clear
Clear
 Wind from NW
Wind: NW 20 mph , 31 km/h
Temperature: 57°F , 14°C
Dew Point: 39°F , 4°C
Humidity: 51%
Barometer: 30.00 inHg , 1015.9 hPa
Clouds: Clear
Visibility: 10 miles , 16 km
2024/04/15 17:35 KMAN 151735Z AUTO 31017KT 10SM CLR 14/04 A3000 RMK A01
 
KBOI - Boise, Idaho, USA
Distance from station: SSE 23mi, 38km
Updated: Mon, 15-Apr-2024 10:53am MDT
Light rain, Overcast
Light rain, Overcast
 Wind from NW
Wind: NW 10 mph , 17 km/h
Temperature: 48°F , 9°C
Wind Chill: 44°F , 7°C
Dew Point: 43°F , 6°C
Humidity: 82%
Barometer: 29.98 inHg , 1015.2 hPa
Summary: Light rain
Clouds: Overcast
Visibility: 10 miles , 16 km
Cloud details: Mostly cloudy 6500 ft
Overcast 8000 ft
2024/04/15 16:53 KBOI 151653Z 31009KT 10SM -RA BKN065 OVC080 09/06 A2998 RMK AO2 RAB33 SLP147 P0001 T00940056
KONO - Ontario, Oregon, USA
Distance from station: WNW 30mi, 48km
Updated: Mon, 15-Apr-2024 10:53am MDT
Overcast
Overcast
 Wind from WNW
Wind: WNW 15 mph , 24 km/h
Temperature: 59°F , 15°C
Dew Point: 39°F , 4°C
Humidity: 48%
Barometer: 30.01 inHg , 1016.3 hPa
Clouds: Overcast
Visibility: 10 miles , 16 km
Cloud details: Partly cloudy 5500 ft
Overcast 7500 ft
2024/04/15 16:53 KONO 151653Z AUTO 30013KT 10SM SCT055 OVC075 15/04 A3001 RMK AO2 SLP157 T01500039
 
KMUO - Mountain Home, Idaho, USA
Distance from station: SSE 65mi, 104km
Updated: Mon, 15-Apr-2024 10:55am MDT
Mostly cloudy
Mostly cloudy
 Wind from WNW
Wind: WNW 31 mph , 50 km/h, Gust: 38 mph , 61 km/h
Temperature: 57°F , 14°C
Dew Point: 39°F , 4°C
Humidity: 51%
Barometer: 29.92 inHg , 1013.2 hPa
Clouds: Mostly cloudy
Visibility: 7 miles , 11 km
Cloud details: Mostly cloudy 12000 ft
2024/04/15 16:55 KMUO 151655Z AUTO 30027G33KT 7SM BKN120 14/04 A2992 RMK AO2 PK WND 30033/46 SLP131 T01360036 $
KMYL - Mccall, Idaho, USA
Distance from station: NNE 74mi, 119km
Updated: Mon, 15-Apr-2024 10:51am MDT
Overcast
Overcast
 Wind from WNW
Wind: WNW 8 mph , 13 km/h
Temperature: 46°F , 8°C
Wind Chill: 42°F , 6°C
Dew Point: 39°F , 4°C
Humidity: 76%
Barometer: 29.95 inHg , 1014.2 hPa
Clouds: Overcast
Visibility: 10 miles , 16 km
Cloud details: Mostly cloudy 3600 ft
Mostly cloudy 4700 ft
Overcast 6500 ft
2024/04/15 16:51 KMYL 151651Z AUTO 30007KT 10SM BKN036 BKN047 OVC065 08/04 A2995 RMK AO2 SLP132 T00780039
 
KSNT - Stanley, Idaho, USA
Distance from station: ENE 79mi, 127km
Updated: Mon, 15-Apr-2024 10:51am MDT

 Wind from N
Wind: N 5 mph , 7 km/h
Temperature: 41°F , 5°C
Wind Chill: 38°F , 3°C
Dew Point: 34°F , 1°C
Humidity: 76%
Barometer: 29.95 inHg , 1014.2 hPa
2024/04/15 16:51 KSNT 151651Z AUTO 36004KT 05/01 A2995 RMK AO1 SLP104 T00500006
KBKE - Baker, Oregon, USA
Distance from station: NW 96mi, 154km
Updated: Mon, 15-Apr-2024 10:53am MDT
Few Clouds
Few Clouds
 Wind from N
Wind: N 7 mph , 11 km/h
Temperature: 54°F , 12°C
Dew Point: 34°F , 1°C
Humidity: 47%
Barometer: 30.04 inHg , 1017.3 hPa
Clouds: Few Clouds
Visibility: 10 miles , 16 km
Cloud details: Few Clouds 11000 ft
2024/04/15 16:53 KBKE 151653Z AUTO 35006KT 10SM FEW110 12/01 A3004 RMK AO2 SLP168 T01170011
 
KJSY - Joseph, Oregon, USA
Distance from station: NNW 111mi, 179km
Updated: Mon, 26-Feb-2024 7:15am MST
NOT Current
Snow, Overcast
Snow, Overcast
 Wind from N
Wind: N 12 mph , 19 km/h, Gust: 21 mph , 33 km/h
Temperature: 32°F , 0°C
Wind Chill: 23°F , -5°C
Dew Point: 32°F , 0°C
Humidity: 100%
Barometer: 29.58 inHg , 1001.7 hPa
Summary: Snow
Clouds: Overcast
Visibility: 3/4 mile , 1.2 km
Cloud details: Overcast 500 ft
2024/02/26 14:15 KJSY 261415Z AUTO 35010G18KT 3/4SM SN OVC005 00/00 A2958 RMK AO2 T10051005
KSUN - Hailey/Friedman, Idaho, USA
Distance from station: ESE 112mi, 180km
Updated: Mon, 15-Apr-2024 10:55am MDT
Clear
Clear
 Wind from SSE
Wind: SSE 8 mph , 13 km/h
Temperature: 50°F , 10°C
Wind Chill: 47°F , 8°C
Dew Point: 36°F , 2°C
Humidity: 58%
Barometer: 29.89 inHg , 1012.2 hPa
Clouds: Clear
Visibility: 10 miles , 16 km
2024/04/15 16:55 KSUN 151655Z 15007KT 10SM CLR 10/02 A2989
 
KREO - Rome, Oregon, USA
Distance from station: SW 113mi, 182km
Updated: Mon, 15-Apr-2024 10:52am MDT

 Wind from SW
Wind: SW 14 mph , 22 km/h
Temperature: 52°F , 11°C
Dew Point: 39°F , 4°C
Humidity: 62%
Barometer: 30.04 inHg , 1017.3 hPa
2024/04/15 16:52 KREO 151652Z AUTO 22012KT 11/04 A3004 RMK AO1 SLP173 T01060039
KLLJ - Challis, Idaho, USA
Distance from station: ENE 120mi, 193km
Updated: Mon, 15-Apr-2024 10:55am MDT
Overcast
Overcast
 Wind from calm
Wind: Calm
Temperature: 45°F , 7°C
Dew Point: 36°F , 2°C
Humidity: 71%
Barometer: 29.91 inHg , 1012.9 hPa
Clouds: Overcast
Visibility: 10 miles , 16 km
Cloud details: Mostly cloudy 4100 ft
Overcast 5000 ft
2024/04/15 16:55 KLLJ 151655Z AUTO 00000KT 10SM BKN041 OVC050 07/02 A2991 RMK AO2 RAB09E50 SLP108 P0000 T00720017
 
KLGD - La Grande, Oregon, USA
Distance from station: NW 123mi, 198km
Updated: Mon, 15-Apr-2024 10:56am MDT
Clear
Clear
 Wind from WNW
Wind: WNW 17 mph , 28 km/h, Gust: 25 mph , 41 km/h
Temperature: 54°F , 12°C
Dew Point: 28°F , -2°C
Humidity: 38%
Barometer: 30.06 inHg , 1017.9 hPa
Clouds: Clear
Visibility: 10 miles , 16 km
2024/04/15 16:56 KLGD 151656Z AUTO 29015G22KT 10SM CLR 12/M02 A3006 RMK AO2 SLP180 T01171017
KBNO - Burns, Oregon, USA
Distance from station: W 126mi, 202km
Updated: Mon, 15-Apr-2024 10:53am MDT
Few Clouds
Few Clouds
 Wind from NW
Wind: NW 13 mph , 20 km/h, Gust: 22 mph , 35 km/h
Temperature: 52°F , 11°C
Dew Point: 30°F , -1°C
Humidity: 44%
Barometer: 30.07 inHg , 1018.3 hPa
Clouds: Few Clouds
Visibility: 10 miles , 16 km
Cloud details: Few Clouds 11000 ft
2024/04/15 16:53 KBNO 151653Z AUTO 31011G19KT 10SM FEW110 11/M01 A3007 RMK AO2 SLP173 T01061011
 
KJER - Jerome County, Idaho, USA
Distance from station: SE 128mi, 207km
Updated: Mon, 15-Apr-2024 10:53am MDT
Clear
Clear
 Wind from W
Wind: W 23 mph , 37 km/h, Gust: 38 mph , 61 km/h
Temperature: 54°F , 12°C
Dew Point: 36°F , 2°C
Humidity: 51%
Barometer: 29.90 inHg , 1012.5 hPa
Clouds: Clear
Visibility: 10 miles , 16 km
2024/04/15 16:53 KJER 151653Z AUTO 27020G33KT 10SM CLR 12/02 A2990 RMK AO2 PK WND 28036/1621 SLP117 T01170022
KGCD - John Day State, Oregon, USA
Distance from station: WNW 129mi, 208km
Updated: Mon, 15-Apr-2024 11:35am MDT
Clear
Clear
 Wind from W
Wind: W 14 mph , 22 km/h
Temperature: 50°F , 10°C
Wind Chill: 45°F , 7°C
Dew Point: 30°F , -1°C
Humidity: 47%
Barometer: 30.10 inHg , 1019.3 hPa
Clouds: Clear
Visibility: 10 miles , 16 km
2024/04/15 17:35 KGCD 151735Z AUTO 28012KT 10SM CLR 10/M01 A3010 RMK AO2 T00961007
 
KTWF - Twin Falls, Idaho, USA
Distance from station: SE 138mi, 222km
Updated: Mon, 15-Apr-2024 10:53am MDT
Clear
Clear
 Wind from W
Wind: W 31 mph , 50 km/h, Gust: 44 mph , 70 km/h
Temperature: 54°F , 12°C
Dew Point: 36°F , 2°C
Humidity: 51%
Barometer: 29.91 inHg , 1012.9 hPa
Clouds: Clear
Visibility: 10 miles , 16 km
2024/04/15 16:53 KTWF 151653Z 28027G38KT 10SM CLR 12/02 A2991 RMK AO2 PK WND 29038/1558 SLP102 T01220017
KGIC - Grangeville, Idaho, USA
Distance from station: N 144mi, 232km
Updated: Mon, 15-Apr-2024 11:35am MDT
Overcast
Overcast
 Wind from W
Wind: W 8 mph , 13 km/h
Temperature: 52°F , 11°C
Dew Point: 41°F , 5°C
Humidity: 67%
Barometer: 30.00 inHg , 1015.9 hPa
Clouds: Overcast
Visibility: 10 miles , 16 km
Cloud details: Overcast 4100 ft
2024/04/15 17:35 KGIC 151735Z AUTO 26007KT 10SM OVC041 11/05 A3000 RMK AO1
 
KMEH - Meacham, Oregon, USA
Distance from station: NW 149mi, 240km
Updated: Mon, 15-Apr-2024 10:56am MDT
Few Clouds
Few Clouds
 Wind from varies
Wind: varies 7 mph , 11 km/h
Temperature: 45°F , 7°C
Wind Chill: 41°F , 5°C
Dew Point: 28°F , -2°C
Humidity: 53%
Barometer: 30.08 inHg , 1018.6 hPa
Clouds: Few Clouds
Visibility: 10 miles , 16 km
Cloud details: Few Clouds 100 ft
Few Clouds 9000 ft
2024/04/15 16:56 KMEH 151656Z AUTO VRB06KT 10SM FEW001 FEW090 07/M02 A3008 RMK AO2 SLP186 T00721017
KSMN - Salmon/Lemhi, Idaho, USA
Distance from station: NE 154mi, 248km
Updated: Mon, 15-Apr-2024 10:56am MDT
Overcast
Overcast
 Wind from calm
Wind: Calm
Temperature: 48°F , 9°C
Dew Point: 37°F , 3°C
Humidity: 66%
Barometer: 29.91 inHg , 1012.9 hPa
Clouds: Overcast
Visibility: 10 miles , 16 km
Cloud details: Overcast 5000 ft
2024/04/15 16:56 KSMN 151656Z AUTO 00000KT 10SM OVC050 09/03 A2991 RMK AO2 SLP127 T00940033
 
KBYI - Burley, Idaho, USA
Distance from station: ESE 163mi, 262km
Updated: Mon, 15-Apr-2024 10:53am MDT
Few Clouds
Few Clouds
 Wind from W
Wind: W 17 mph , 28 km/h, Gust: 35 mph , 56 km/h
Temperature: 52°F , 11°C
Dew Point: 34°F , 1°C
Humidity: 50%
Barometer: 29.88 inHg , 1011.9 hPa
Clouds: Few Clouds
Visibility: 10 miles , 16 km
Cloud details: Few Clouds 11000 ft
2024/04/15 16:53 KBYI 151653Z AUTO 27015G30KT 10SM FEW110 11/01 A2988 RMK AO2 PK WND 27030/1649 SLP103 T01060006
KP69 - Lowell/Elk City, Idaho, USA
Distance from station: NNE 164mi, 263km
Updated: Mon, 15-Apr-2024 10:52am MDT

 Wind from calm
Wind: Calm
Temperature: 57°F , 14°C
Dew Point: 50°F , 10°C
Humidity: 77%
Barometer: 29.97 inHg , 1014.9 hPa
2024/04/15 16:52 KP69 151652Z AUTO 00000KT 14/10 A2997 RMK AO1 SLP144 T01390100
 
KPDT - Pendleton, Oregon, USA
Distance from station: NW 172mi, 277km
Updated: Mon, 15-Apr-2024 10:53am MDT
Clear
Clear
 Wind from W
Wind: W 24 mph , 39 km/h, Gust: 35 mph , 56 km/h
Temperature: 52°F , 11°C
Dew Point: 34°F , 1°C
Humidity: 50%
Barometer: 30.10 inHg , 1019.3 hPa
Clouds: Clear
Visibility: 10 miles , 16 km
2024/04/15 16:53 KPDT 151653Z 26021G30KT 10SM CLR 11/01 A3010 RMK AO2 PK WND 26037/1556 SLP186 T01110011
KLWS - Lewiston, Idaho, USA
Distance from station: N 175mi, 282km
Updated: Mon, 15-Apr-2024 10:56am MDT
Clear
Clear
 Wind from calm
Wind: Calm
Temperature: 61°F , 16°C
Dew Point: 36°F , 2°C
Humidity: 39%
Barometer: 29.99 inHg , 1015.6 hPa
Clouds: Clear
Visibility: 10 miles , 16 km
2024/04/15 16:56 KLWS 151656Z 00000KT 10SM CLR 16/02 A2999 RMK AO2 SLP149 T01610022
 
KALW - Walla Walla, Washington, USA
Distance from station: NNW 178mi, 287km
Updated: Mon, 15-Apr-2024 10:53am MDT
Clear
Clear
 Wind from SSW
Wind: SSW 20 mph , 31 km/h, Gust: 28 mph , 44 km/h
Temperature: 52°F , 11°C
Dew Point: 36°F , 2°C
Humidity: 54%
Barometer: 30.09 inHg , 1019 hPa
Clouds: Clear
Visibility: 10 miles , 16 km
2024/04/15 16:53 KALW 151653Z 21017G24KT 10SM CLR 11/02 A3009 RMK AO2 PK WND 20027/1602 SLP190 T01060022
KHRI - Hermiston, Oregon, USA
Distance from station: NW 194mi, 311km
Updated: Mon, 15-Apr-2024 10:53am MDT
Clear
Clear
 Wind from WSW
Wind: WSW 26 mph , 43 km/h, Gust: 38 mph , 61 km/h
Temperature: 54°F , 12°C
Dew Point: 36°F , 2°C
Humidity: 51%
Barometer: 30.10 inHg , 1019.3 hPa
Clouds: Clear
Visibility: 10 miles , 16 km
2024/04/15 16:53 KHRI 151653Z AUTO 25023G33KT 10SM CLR 12/02 A3010 RMK AO2 PK WND 26033/1652 SLP192 T01220022
CoCoRaHS (Community Collaborative Rain, Hail and Snow Network) Station Number: ID-GM-5 Live Lightning Map - USA Boise Skywarn Spotter ID: DO21 AlertID Southwestern Weather Network
Northwestern Weather Network


National Sex Offender Public Website

National Sex Offender Public Website





(Click on the Flag Counter logo below for details in new browser tab)
Flag Counter